Bells Cross Roads, North Carolina
Current Conditions -  °F | °C
As of 12:35 AM on Tuesday 27 Jan 2015 (Local Time) from KSVH Reporting Station
Clear Clear  
Wind Chill: 25°   Ceiling: Unl
Heat Index: 32°   Visibility: 10mi
Dew Point: 23°   Wind: 8mph
Humidity: 69%   Direction: 290°WNW
Pressure: 29.74"   Gusts: NA
Location:  35.6828°N, 80.8743°W
Report Text: KSVH 270535Z AUTO 29007KT 10SM CLR 00/M05 A2974 RMK AO2 T00011050
Loading
Personal Weather Stations






























Interactive Weather Map New forecast layout! Learn more

10-Day Weather Forecast

Advertisements
Track Severe Weather on mobile